Terminal Aerodrome Forecast
Issued by NWS

Home | Current Version | Previous Version | Text Only | Print | Product List | Glossary On
Versions: 1 2 3 4 5 6 7 8 9 10 11 12 13 14 15 16 17 18 19 20
000
FTUS45 KGJT 232026 AAA
TAFRIL
TAF AMD
KRIL 232026Z 2320/2418 27012KT P6SM VCSH SCT080 SCT100
     FM232100 26017G28KT P6SM -SHRA VCTS BKN050CB
     FM240200 28018G28KT 6SM -SHRA OVC025
     FM241000 27012G20KT 6SM BR VCSH BKN035 OVC050
     FM241700 30010KT P6SM SCT090=

USA.gov is the U.S. government's official web portal to all federal, state and local government web resources and services.